Rechercher aéroport 
image banner adimage banner adimage banner ad
image banner ad

CA43 - Barton Memorial Hospital

Situé à South Lake Tahoe, United States

ICAO - CA43, IATA -

Données fournies par Airmate  

Information générale

Coordonnées: N38°54'41" W119°59'49"
Élévation : 6298 feet MSL.
Variation magnétique : 16° East
Voir autres Aéroports à California

Données opérationnelles

Special qualification required
Heure actuelle UTC:
Heure actuelle locale:
Météo à : KTVL - Lake Tahoe ( 2 km )
METAR: KTVL 300053Z AUTO 21014G20KT 10SM -RA OVC085 16/11 A3034 RMK AO2 PK WND 20026/0000 SLP235 P0003 T01610106
TAF: KTVL 292320Z 3000/3024 15006KT 6SM -SHRA BKN070 BKN110 FM300200 VRB03KT P6SM BKN090 FM302100 17007KT P6SM VCSH BKN150 PROB30 3021/3024 VRB20G40KT 4SM TSRA OVC025CB
Voir NOTAMs / SUP AIP / TFR affectant cet aéroport [VIEW]
Fréquences de communication: [VIEW]

Pistes:

Coordonnées de l'aéroport

Adresse: South Lake Tahoe United States

Vue satellite de CA43